sensor_id;sensor_type;location;lat;lon;timestamp;pressure;altitude;pressure_sealevel;temperature;humidity
38716;BME280;24833;49.324;8.694;2023-02-15T00:00:06;101281.19;;;1.54;79.96
38716;BME280;24833;49.324;8.694;2023-02-15T00:02:37;101278.56;;;1.54;80.07
38716;BME280;24833;49.324;8.694;2023-02-15T00:05:04;101278.56;;;1.54;79.91
38716;BME280;24833;49.324;8.694;2023-02-15T00:07:31;101282.03;;;1.54;80.01
38716;BME280;24833;49.324;8.694;2023-02-15T00:09:59;101281.94;;;1.56;80.15
38716;BME280;24833;49.324;8.694;2023-02-15T00:12:26;101279.31;;;1.56;80.08
38716;BME280;24833;49.324;8.694;2023-02-15T00:14:53;101274.03;;;1.56;79.90
38716;BME280;24833;49.324;8.694;2023-02-15T00:17:21;101267.09;;;1.55;79.96
38716;BME280;24833;49.324;8.694;2023-02-15T00:19:48;101271.41;;;1.56;80.12
38716;BME280;24833;49.324;8.694;2023-02-15T00:22:15;101268.78;;;1.56;80.01
38716;BME280;24833;49.324;8.694;2023-02-15T00:24:42;101271.50;;;1.54;80.14
38716;BME280;24833;49.324;8.694;2023-02-15T00:27:09;101265.41;;;1.54;79.96
38716;BME280;24833;49.324;8.694;2023-02-15T00:29:36;101266.25;;;1.54;79.97
38716;BME280;24833;49.324;8.694;2023-02-15T00:32:03;101258.44;;;1.53;80.16
38716;BME280;24833;49.324;8.694;2023-02-15T00:34:30;101262.00;;;1.52;80.23
38716;BME280;24833;49.324;8.694;2023-02-15T00:36:57;101262.00;;;1.52;80.22
38716;BME280;24833;49.324;8.694;2023-02-15T00:39:24;101266.44;;;1.51;80.04
38716;BME280;24833;49.324;8.694;2023-02-15T00:41:51;101265.59;;;1.51;80.42
38716;BME280;24833;49.324;8.694;2023-02-15T00:44:18;101253.38;;;1.50;80.07
38716;BME280;24833;49.324;8.694;2023-02-15T00:46:45;101254.22;;;1.50;80.18
38716;BME280;24833;49.324;8.694;2023-02-15T00:49:12;101250.75;;;1.50;80.11
38716;BME280;24833;49.324;8.694;2023-02-15T00:51:39;101261.16;;;1.51;79.98
38716;BME280;24833;49.324;8.694;2023-02-15T00:54:06;101251.47;;;1.52;80.17
38716;BME280;24833;49.324;8.694;2023-02-15T00:56:33;101246.22;;;1.52;80.11
38716;BME280;24833;49.324;8.694;2023-02-15T00:59:00;101240.00;;;1.53;80.04
38716;BME280;24833;49.324;8.694;2023-02-15T01:01:27;101246.22;;;1.52;80.27
38716;BME280;24833;49.324;8.694;2023-02-15T01:03:54;101243.59;;;1.52;80.15
38716;BME280;24833;49.324;8.694;2023-02-15T01:06:21;101234.84;;;1.51;80.11
38716;BME280;24833;49.324;8.694;2023-02-15T01:08:48;101234.00;;;1.51;79.99
38716;BME280;24833;49.324;8.694;2023-02-15T01:11:19;101228.75;;;1.51;80.21
38716;BME280;24833;49.324;8.694;2023-02-15T01:13:53;101233.16;;;1.50;80.09
38716;BME280;24833;49.324;8.694;2023-02-15T01:16:21;101232.31;;;1.50;80.16
38716;BME280;24833;49.324;8.694;2023-02-15T01:18:48;101233.16;;;1.50;79.98
38716;BME280;24833;49.324;8.694;2023-02-15T01:21:21;101232.31;;;1.50;80.00
38716;BME280;24833;49.324;8.694;2023-02-15T01:23:49;101220.97;;;1.49;80.22
38716;BME280;24833;49.324;8.694;2023-02-15T01:26:16;101237.59;;;1.50;80.15
38716;BME280;24833;49.324;8.694;2023-02-15T01:28:44;101236.75;;;1.49;80.07
38716;BME280;24833;49.324;8.694;2023-02-15T01:31:17;101245.59;;;1.48;79.83
38716;BME280;24833;49.324;8.694;2023-02-15T01:33:46;101248.13;;;1.50;80.18
38716;BME280;24833;49.324;8.694;2023-02-15T01:36:14;101248.13;;;1.50;80.26
38716;BME280;24833;49.324;8.694;2023-02-15T01:38:41;101243.69;;;1.50;80.36
38716;BME280;24833;49.324;8.694;2023-02-15T01:41:08;101243.69;;;1.50;80.24
38716;BME280;24833;49.324;8.694;2023-02-15T01:43:59;101241.16;;;1.49;80.25
38716;BME280;24833;49.324;8.694;2023-02-15T01:46:40;101235.81;;;1.50;80.15
38716;BME280;24833;49.324;8.694;2023-02-15T01:49:14;101239.28;;;1.51;80.40
38716;BME280;24833;49.324;8.694;2023-02-15T01:51:46;101227.91;;;1.50;80.05
38716;BME280;24833;49.324;8.694;2023-02-15T01:54:32;101227.91;;;1.50;80.06
38716;BME280;24833;49.324;8.694;2023-02-15T01:57:15;101227.06;;;1.50;80.01
38716;BME280;24833;49.324;8.694;2023-02-15T01:59:46;101220.13;;;1.49;80.00
38716;BME280;24833;49.324;8.694;2023-02-15T02:02:19;101221.06;;;1.48;80.25
38716;BME280;24833;49.324;8.694;2023-02-15T02:04:57;101211.47;;;1.47;80.27
38716;BME280;24833;49.324;8.694;2023-02-15T02:07:28;101214.97;;;1.47;80.09
38716;BME280;24833;49.324;8.694;2023-02-15T02:10:00;101218.44;;;1.48;80.13
38716;BME280;24833;49.324;8.694;2023-02-15T02:12:28;101223.78;;;1.46;80.12
38716;BME280;24833;49.324;8.694;2023-02-15T02:14:56;101221.97;;;1.47;80.30
38716;BME280;24833;49.324;8.694;2023-02-15T02:20:28;101200.94;;;1.47;80.43
38716;BME280;24833;49.324;8.694;2023-02-15T02:35:44;101193.25;;;1.44;80.20
38716;BME280;24833;49.324;8.694;2023-02-15T02:38:46;101189.78;;;1.43;80.05
38716;BME280;24833;49.324;8.694;2023-02-15T02:41:48;101192.41;;;1.43;80.18
38716;BME280;24833;49.324;8.694;2023-02-15T02:44:26;101183.69;;;1.43;80.10
38716;BME280;24833;49.324;8.694;2023-02-15T02:47:26;101182.84;;;1.42;80.09
38716;BME280;24833;49.324;8.694;2023-02-15T02:50:12;101182.00;;;1.42;80.11
38716;BME280;24833;49.324;8.694;2023-02-15T02:53:06;101178.41;;;1.43;80.40
38716;BME280;24833;49.324;8.694;2023-02-15T02:55:52;101173.16;;;1.43;80.29
38716;BME280;24833;49.324;8.694;2023-02-15T02:58:42;101174.84;;;1.44;80.13
38716;BME280;24833;49.324;8.694;2023-02-15T03:01:31;101173.88;;;1.45;80.26
38716;BME280;24833;49.324;8.694;2023-02-15T03:04:10;101161.56;;;1.45;80.41
38716;BME280;24833;49.324;8.694;2023-02-15T03:06:52;101163.34;;;1.45;80.14
38716;BME280;24833;49.324;8.694;2023-02-15T03:09:39;101161.56;;;1.45;80.28
38716;BME280;24833;49.324;8.694;2023-02-15T03:12:17;101157.16;;;1.46;80.51
38716;BME280;24833;49.324;8.694;2023-02-15T03:14:53;101165.03;;;1.46;80.53
38716;BME280;24833;49.324;8.694;2023-02-15T03:17:24;101158.81;;;1.47;80.38
38716;BME280;24833;49.324;8.694;2023-02-15T03:19:56;101158.81;;;1.47;79.99
38716;BME280;24833;49.324;8.694;2023-02-15T03:25:22;101163.16;;;1.48;80.65
38716;BME280;24833;49.324;8.694;2023-02-15T03:27:56;101164.00;;;1.48;80.54
38716;BME280;24833;49.324;8.694;2023-02-15T03:30:27;101178.00;;;1.49;80.43
38716;BME280;24833;49.324;8.694;2023-02-15T03:32:58;101165.81;;;1.48;80.24
38716;BME280;24833;49.324;8.694;2023-02-15T03:35:34;101164.84;;;1.49;80.54
38716;BME280;24833;49.324;8.694;2023-02-15T03:38:07;101169.16;;;1.50;80.67
38716;BME280;24833;49.324;8.694;2023-02-15T03:40:41;101172.53;;;1.52;80.39
38716;BME280;24833;49.324;8.694;2023-02-15T03:46:36;101165.59;;;1.51;80.38
38716;BME280;24833;49.324;8.694;2023-02-15T03:49:21;101167.25;;;1.52;80.50
38716;BME280;24833;49.324;8.694;2023-02-15T03:51:51;101168.09;;;1.52;80.65
38716;BME280;24833;49.324;8.694;2023-02-15T03:54:39;101177.78;;;1.52;80.37
38716;BME280;24833;49.324;8.694;2023-02-15T03:57:38;101175.06;;;1.53;80.25
38716;BME280;24833;49.324;8.694;2023-02-15T04:00:24;101178.56;;;1.54;80.57
38716;BME280;24833;49.324;8.694;2023-02-15T04:06:47;101179.28;;;1.56;80.63
38716;BME280;24833;49.324;8.694;2023-02-15T04:09:14;101173.19;;;1.55;80.41
38716;BME280;24833;49.324;8.694;2023-02-15T04:12:00;101186.34;;;1.55;80.58
38716;BME280;24833;49.324;8.694;2023-02-15T04:14:26;101174.03;;;1.56;80.69
38716;BME280;24833;49.324;8.694;2023-02-15T04:17:12;101180.25;;;1.55;80.54
38716;BME280;24833;49.324;8.694;2023-02-15T04:19:39;101180.97;;;1.57;80.82
38716;BME280;24833;49.324;8.694;2023-02-15T04:22:24;101172.13;;;1.58;80.57
38716;BME280;24833;49.324;8.694;2023-02-15T04:25:09;101168.66;;;1.57;80.75
38716;BME280;24833;49.324;8.694;2023-02-15T04:27:42;101170.44;;;1.57;80.86
38716;BME280;24833;49.324;8.694;2023-02-15T04:30:12;101160.75;;;1.57;80.52
38716;BME280;24833;49.324;8.694;2023-02-15T04:32:39;101164.97;;;1.60;80.79
38716;BME280;24833;49.324;8.694;2023-02-15T04:35:07;101162.25;;;1.61;80.89
38716;BME280;24833;49.324;8.694;2023-02-15T04:37:34;101156.13;;;1.61;80.77
38716;BME280;24833;49.324;8.694;2023-02-15T04:40:03;101156.97;;;1.61;80.68
38716;BME280;24833;49.324;8.694;2023-02-15T04:42:30;101158.66;;;1.62;80.66
38716;BME280;24833;49.324;8.694;2023-02-15T04:44:57;101153.41;;;1.62;80.83
38716;BME280;24833;49.324;8.694;2023-02-15T04:47:24;101148.97;;;1.63;80.61
38716;BME280;24833;49.324;8.694;2023-02-15T04:49:51;101148.97;;;1.63;80.83
38716;BME280;24833;49.324;8.694;2023-02-15T04:52:18;101141.06;;;1.63;80.83
38716;BME280;24833;49.324;8.694;2023-02-15T04:54:46;101135.81;;;1.63;80.90
38716;BME280;24833;49.324;8.694;2023-02-15T04:57:13;101136.66;;;1.63;81.40
38716;BME280;24833;49.324;8.694;2023-02-15T04:59:40;101128.75;;;1.63;81.31
38716;BME280;24833;49.324;8.694;2023-02-15T05:02:07;101131.50;;;1.62;80.90
38716;BME280;24833;49.324;8.694;2023-02-15T05:04:34;101142.03;;;1.62;80.88
38716;BME280;24833;49.324;8.694;2023-02-15T05:07:01;101136.75;;;1.62;81.05
38716;BME280;24833;49.324;8.694;2023-02-15T05:09:28;101134.22;;;1.60;81.12
38716;BME280;24833;49.324;8.694;2023-02-15T05:11:55;101137.72;;;1.61;80.89
38716;BME280;24833;49.324;8.694;2023-02-15T05:14:22;101140.44;;;1.59;80.91
38716;BME280;24833;49.324;8.694;2023-02-15T05:16:49;101138.63;;;1.60;80.92
38716;BME280;24833;49.324;8.694;2023-02-15T05:19:16;101141.25;;;1.60;81.40
38716;BME280;24833;49.324;8.694;2023-02-15T05:21:43;101136.00;;;1.60;81.25
38716;BME280;24833;49.324;8.694;2023-02-15T05:24:10;101141.25;;;1.60;81.16
38716;BME280;24833;49.324;8.694;2023-02-15T05:26:55;101139.47;;;1.60;81.61
38716;BME280;24833;49.324;8.694;2023-02-15T05:29:41;101136.94;;;1.59;81.07
38716;BME280;24833;49.324;8.694;2023-02-15T05:32:07;101142.22;;;1.59;81.24
38716;BME280;24833;49.324;8.694;2023-02-15T05:34:35;101135.28;;;1.58;81.32
38716;BME280;24833;49.324;8.694;2023-02-15T05:37:02;101138.00;;;1.56;81.57
38716;BME280;24833;49.324;8.694;2023-02-15T05:39:28;101135.38;;;1.56;81.28
38716;BME280;24833;49.324;8.694;2023-02-15T05:42:01;101138.13;;;1.55;80.91
38716;BME280;24833;49.324;8.694;2023-02-15T05:44:28;101140.75;;;1.55;81.06
38716;BME280;24833;49.324;8.694;2023-02-15T05:46:55;101138.13;;;1.55;80.95
38716;BME280;24833;49.324;8.694;2023-02-15T05:49:22;101145.19;;;1.54;81.02
38716;BME280;24833;49.324;8.694;2023-02-15T05:51:49;101146.03;;;1.55;81.36
38716;BME280;24833;49.324;8.694;2023-02-15T05:54:16;101146.88;;;1.55;81.47
38716;BME280;24833;49.324;8.694;2023-02-15T05:56:43;101145.06;;;1.56;81.44
38716;BME280;24833;49.324;8.694;2023-02-15T05:59:10;101150.34;;;1.56;81.57
38716;BME280;24833;49.324;8.694;2023-02-15T06:01:37;101155.72;;;1.54;81.29
38716;BME280;24833;49.324;8.694;2023-02-15T06:04:04;101156.56;;;1.55;81.34
38716;BME280;24833;49.324;8.694;2023-02-15T06:06:58;101154.88;;;1.54;81.77
38716;BME280;24833;49.324;8.694;2023-02-15T06:10:11;101156.75;;;1.52;81.11
38716;BME280;24833;49.324;8.694;2023-02-15T06:12:39;101163.69;;;1.53;81.28
38716;BME280;24833;49.324;8.694;2023-02-15T06:15:06;101163.69;;;1.53;82.05
38716;BME280;24833;49.324;8.694;2023-02-15T06:17:33;101155.06;;;1.51;81.48
38716;BME280;24833;49.324;8.694;2023-02-15T06:20:00;101160.31;;;1.51;82.18
38716;BME280;24833;49.324;8.694;2023-02-15T06:22:27;101168.22;;;1.51;81.91
38716;BME280;24833;49.324;8.694;2023-02-15T06:24:54;101167.50;;;1.49;81.32
38716;BME280;24833;49.324;8.694;2023-02-15T06:27:21;101172.75;;;1.49;81.29
38716;BME280;24833;49.324;8.694;2023-02-15T06:29:48;101169.34;;;1.47;81.26
38716;BME280;24833;49.324;8.694;2023-02-15T06:32:15;101172.09;;;1.45;81.27
38716;BME280;24833;49.324;8.694;2023-02-15T06:34:42;101177.34;;;1.45;81.15
38716;BME280;24833;49.324;8.694;2023-02-15T06:37:09;101180.09;;;1.44;81.37
38716;BME280;24833;49.324;8.694;2023-02-15T06:39:36;101177.56;;;1.42;81.10
38716;BME280;24833;49.324;8.694;2023-02-15T06:42:03;101174.19;;;1.40;81.41
38716;BME280;24833;49.324;8.694;2023-02-15T06:44:30;101183.88;;;1.40;81.33
38716;BME280;24833;49.324;8.694;2023-02-15T06:46:57;101188.28;;;1.39;81.41
38716;BME280;24833;49.324;8.694;2023-02-15T06:49:24;101196.28;;;1.38;81.18
38716;BME280;24833;49.324;8.694;2023-02-15T06:51:51;101197.34;;;1.35;81.45
38716;BME280;24833;49.324;8.694;2023-02-15T06:54:18;101192.16;;;1.33;81.23
38716;BME280;24833;49.324;8.694;2023-02-15T06:56:45;101186.16;;;1.31;81.39
38716;BME280;24833;49.324;8.694;2023-02-15T06:59:12;101191.53;;;1.30;81.27
38716;BME280;24833;49.324;8.694;2023-02-15T07:01:39;101185.53;;;1.28;81.39
38716;BME280;24833;49.324;8.694;2023-02-15T07:04:06;101182.97;;;1.26;81.83
38716;BME280;24833;49.324;8.694;2023-02-15T07:06:33;101192.66;;;1.26;81.73
38716;BME280;24833;49.324;8.694;2023-02-15T07:09:01;101196.25;;;1.25;81.38
38716;BME280;24833;49.324;8.694;2023-02-15T07:11:28;101195.63;;;1.21;81.44
38716;BME280;24833;49.324;8.694;2023-02-15T07:14:14;101189.59;;;1.19;81.76
38716;BME280;24833;49.324;8.694;2023-02-15T07:16:41;101191.59;;;1.16;81.42
38716;BME280;24833;49.324;8.694;2023-02-15T07:19:08;101196.03;;;1.15;81.44
38716;BME280;24833;49.324;8.694;2023-02-15T07:21:35;101197.88;;;1.13;81.31
38716;BME280;24833;49.324;8.694;2023-02-15T07:24:03;101201.47;;;1.12;81.51
38716;BME280;24833;49.324;8.694;2023-02-15T07:26:32;101200.72;;;1.10;81.49
38716;BME280;24833;49.324;8.694;2023-02-15T07:28:59;101199.03;;;1.09;82.00
38716;BME280;24833;49.324;8.694;2023-02-15T07:31:26;101200.84;;;1.08;81.44
38716;BME280;24833;49.324;8.694;2023-02-15T07:33:53;101195.66;;;1.07;81.41
38716;BME280;24833;49.324;8.694;2023-02-15T07:36:20;101201.84;;;1.06;81.56
38716;BME280;24833;49.324;8.694;2023-02-15T07:38:47;101208.78;;;1.07;81.81
38716;BME280;24833;49.324;8.694;2023-02-15T07:41:15;101203.53;;;1.07;81.84
38716;BME280;24833;49.324;8.694;2023-02-15T07:43:44;101206.16;;;1.07;81.64
38716;BME280;24833;49.324;8.694;2023-02-15T07:46:14;101205.31;;;1.06;81.63
38716;BME280;24833;49.324;8.694;2023-02-15T07:48:42;101201.00;;;1.05;81.55
38716;BME280;24833;49.324;8.694;2023-02-15T07:51:11;101192.28;;;1.05;81.81
38716;BME280;24833;49.324;8.694;2023-02-15T07:53:39;101184.38;;;1.05;81.67
38716;BME280;24833;49.324;8.694;2023-02-15T07:56:10;101192.38;;;1.03;81.80
38716;BME280;24833;49.324;8.694;2023-02-15T07:58:38;101184.59;;;1.02;81.72
38716;BME280;24833;49.324;8.694;2023-02-15T08:01:26;101184.59;;;1.02;81.59
38716;BME280;24833;49.324;8.694;2023-02-15T08:03:54;101191.66;;;1.01;81.78
38716;BME280;24833;49.324;8.694;2023-02-15T08:06:24;101192.59;;;1.00;81.66
38716;BME280;24833;49.324;8.694;2023-02-15T08:08:51;101182.91;;;1.01;81.69
38716;BME280;24833;49.324;8.694;2023-02-15T08:11:22;101188.19;;;1.01;81.93
38716;BME280;24833;49.324;8.694;2023-02-15T08:14:20;101181.22;;;1.00;81.59
38716;BME280;24833;49.324;8.694;2023-02-15T08:16:53;101189.03;;;1.01;81.83
38716;BME280;24833;49.324;8.694;2023-02-15T08:19:28;101182.91;;;1.01;82.01
38716;BME280;24833;49.324;8.694;2023-02-15T08:21:57;101180.28;;;1.01;82.10
38716;BME280;24833;49.324;8.694;2023-02-15T08:24:28;101184.72;;;1.00;82.05
38716;BME280;24833;49.324;8.694;2023-02-15T08:26:56;101173.25;;;1.01;81.99
38716;BME280;24833;49.324;8.694;2023-02-15T08:29:26;101179.44;;;1.00;82.10
38716;BME280;24833;49.324;8.694;2023-02-15T08:31:59;101185.56;;;1.01;82.23
38716;BME280;24833;49.324;8.694;2023-02-15T08:34:31;101184.72;;;1.00;82.32
38716;BME280;24833;49.324;8.694;2023-02-15T08:36:59;101187.34;;;1.00;82.03
38716;BME280;24833;49.324;8.694;2023-02-15T08:39:26;101182.16;;;0.99;82.16
38716;BME280;24833;49.324;8.694;2023-02-15T08:41:53;101180.47;;;0.98;82.62
38716;BME280;24833;49.324;8.694;2023-02-15T08:44:20;101166.38;;;0.99;82.54
38716;BME280;24833;49.324;8.694;2023-02-15T08:46:48;101169.00;;;0.99;82.96
38716;BME280;24833;49.324;8.694;2023-02-15T08:49:19;101172.59;;;0.98;82.89
38716;BME280;24833;49.324;8.694;2023-02-15T08:51:48;101170.06;;;0.96;83.07
38716;BME280;24833;49.324;8.694;2023-02-15T08:54:18;101169.22;;;0.96;82.49
38716;BME280;24833;49.324;8.694;2023-02-15T08:56:46;101176.16;;;0.97;82.55
38716;BME280;24833;49.324;8.694;2023-02-15T08:59:20;101169.00;;;0.99;82.92
38716;BME280;24833;49.324;8.694;2023-02-15T09:01:50;101172.41;;;1.01;83.66
38716;BME280;24833;49.324;8.694;2023-02-15T09:04:17;101174.09;;;1.02;83.45
38716;BME280;24833;49.324;8.694;2023-02-15T09:06:46;101159.25;;;1.01;83.72
38716;BME280;24833;49.324;8.694;2023-02-15T09:09:16;101154.91;;;1.00;83.49
38716;BME280;24833;49.324;8.694;2023-02-15T09:11:46;101160.16;;;1.00;83.19
38716;BME280;24833;49.324;8.694;2023-02-15T09:14:20;101159.44;;;0.98;83.54
38716;BME280;24833;49.324;8.694;2023-02-15T09:16:48;101165.44;;;1.00;83.15
38716;BME280;24833;49.324;8.694;2023-02-15T09:19:20;101161.88;;;1.01;82.96
38716;BME280;24833;49.324;8.694;2023-02-15T09:21:47;101152.84;;;1.05;83.04
38716;BME280;24833;49.324;8.694;2023-02-15T09:24:16;101153.69;;;1.05;83.70
38716;BME280;24833;49.324;8.694;2023-02-15T09:26:46;101147.38;;;1.08;83.51
38716;BME280;24833;49.324;8.694;2023-02-15T09:29:15;101150.94;;;1.07;84.53
38716;BME280;24833;49.324;8.694;2023-02-15T09:31:46;101147.38;;;1.08;84.29
38716;BME280;24833;49.324;8.694;2023-02-15T09:34:15;101143.81;;;1.09;83.96
38716;BME280;24833;49.324;8.694;2023-02-15T09:36:44;101140.22;;;1.10;83.78
38716;BME280;24833;49.324;8.694;2023-02-15T09:39:17;101150.75;;;1.10;84.07
38716;BME280;24833;49.324;8.694;2023-02-15T09:45:25;101141.72;;;1.14;83.84
38716;BME280;24833;49.324;8.694;2023-02-15T09:48:07;101131.09;;;1.16;84.07
38716;BME280;24833;49.324;8.694;2023-02-15T09:54:03;101141.41;;;1.19;84.38
38716;BME280;24833;49.324;8.694;2023-02-15T09:56:45;101140.78;;;1.15;85.03
38716;BME280;24833;49.324;8.694;2023-02-15T09:59:52;101157.50;;;1.14;84.47
38716;BME280;24833;49.324;8.694;2023-02-15T10:03:09;101147.84;;;1.15;84.01
38716;BME280;24833;49.324;8.694;2023-02-15T10:05:53;101143.41;;;1.15;84.52
38716;BME280;24833;49.324;8.694;2023-02-15T10:08:53;101140.56;;;1.18;84.81
38716;BME280;24833;49.324;8.694;2023-02-15T10:11:37;101140.38;;;1.21;84.42
38716;BME280;24833;49.324;8.694;2023-02-15T10:26:11;101152.94;;;1.43;84.28
38716;BME280;24833;49.324;8.694;2023-02-15T10:28:53;101154.50;;;1.46;84.56
38716;BME280;24833;49.324;8.694;2023-02-15T10:31:37;101155.28;;;1.48;84.71
38716;BME280;24833;49.324;8.694;2023-02-15T10:34:19;101150.00;;;1.48;84.78
38716;BME280;24833;49.324;8.694;2023-02-15T10:36:53;101154.31;;;1.49;84.88
38716;BME280;24833;49.324;8.694;2023-02-15T10:40:01;101162.13;;;1.50;84.64
38716;BME280;24833;49.324;8.694;2023-02-15T10:54:54;101153.81;;;1.56;84.73
38716;BME280;24833;49.324;8.694;2023-02-15T10:57:49;101154.53;;;1.58;84.59
38716;BME280;24833;49.324;8.694;2023-02-15T11:06:28;101142.75;;;1.64;84.96
38716;BME280;24833;49.324;8.694;2023-02-15T11:09:11;101138.13;;;1.68;85.09
38716;BME280;24833;49.324;8.694;2023-02-15T11:11:41;101138.75;;;1.71;84.77
38716;BME280;24833;49.324;8.694;2023-02-15T11:14:44;101138.47;;;1.76;84.97
38716;BME280;24833;49.324;8.694;2023-02-15T11:17:16;101131.94;;;1.81;85.31
38716;BME280;24833;49.324;8.694;2023-02-15T11:22:32;101133.19;;;1.88;85.64
38716;BME280;24833;49.324;8.694;2023-02-15T11:25:01;101119.69;;;1.93;85.55
38716;BME280;24833;49.324;8.694;2023-02-15T11:27:31;101122.13;;;1.96;85.39
38716;BME280;24833;49.324;8.694;2023-02-15T11:30:12;101120.09;;;2.00;85.49
38716;BME280;24833;49.324;8.694;2023-02-15T11:32:44;101116.31;;;2.04;85.22
38716;BME280;24833;49.324;8.694;2023-02-15T11:43:34;101102.16;;;2.17;85.48
38716;BME280;24833;49.324;8.694;2023-02-15T11:46:04;101099.22;;;2.22;85.60
38716;BME280;24833;49.324;8.694;2023-02-15T11:48:32;101084.88;;;2.26;86.14
38716;BME280;24833;49.324;8.694;2023-02-15T11:51:01;101087.19;;;2.31;86.21
38716;BME280;24833;49.324;8.694;2023-02-15T11:53:33;101090.44;;;2.34;85.89
38716;BME280;24833;49.324;8.694;2023-02-15T11:56:02;101084.00;;;2.38;85.90
38716;BME280;24833;49.324;8.694;2023-02-15T11:58:37;101094.22;;;2.43;86.04
38716;BME280;24833;49.324;8.694;2023-02-15T12:01:41;101080.72;;;2.48;86.28
38716;BME280;24833;49.324;8.694;2023-02-15T12:04:32;101080.34;;;2.52;86.45
38716;BME280;24833;49.324;8.694;2023-02-15T12:10:32;101074.44;;;2.61;86.33
38716;BME280;24833;49.324;8.694;2023-02-15T12:13:17;101066.16;;;2.66;86.45
38716;BME280;24833;49.324;8.694;2023-02-15T12:15:55;101064.16;;;2.69;86.17
38716;BME280;24833;49.324;8.694;2023-02-15T12:18:42;101058.53;;;2.74;86.58
38716;BME280;24833;49.324;8.694;2023-02-15T12:21:34;101060.00;;;2.78;86.39
38716;BME280;24833;49.324;8.694;2023-02-15T12:24:23;101061.78;;;2.78;86.51
38716;BME280;24833;49.324;8.694;2023-02-15T12:27:06;101055.69;;;2.77;86.86
38716;BME280;24833;49.324;8.694;2023-02-15T12:29:44;101049.56;;;2.77;86.55
38716;BME280;24833;49.324;8.694;2023-02-15T12:32:35;101051.38;;;2.76;86.37
38716;BME280;24833;49.324;8.694;2023-02-15T12:35:26;101050.28;;;2.79;86.60
38716;BME280;24833;49.324;8.694;2023-02-15T12:40:37;101046.63;;;2.92;87.14
38716;BME280;24833;49.324;8.694;2023-02-15T12:43:24;101037.91;;;3.03;87.63
38716;BME280;24833;49.324;8.694;2023-02-15T12:45:51;101034.22;;;3.17;87.92
38716;BME280;24833;49.324;8.694;2023-02-15T12:48:19;101033.19;;;3.31;88.00
38716;BME280;24833;49.324;8.694;2023-02-15T12:50:49;101024.81;;;3.48;88.89
38716;BME280;24833;49.324;8.694;2023-02-15T12:53:33;101029.97;;;3.72;89.23
38716;BME280;24833;49.324;8.694;2023-02-15T12:56:06;101023.00;;;3.93;89.46
38716;BME280;24833;49.324;8.694;2023-02-15T12:58:36;101023.94;;;4.15;89.89
38716;BME280;24833;49.324;8.694;2023-02-15T13:01:16;101008.03;;;4.37;90.15
38716;BME280;24833;49.324;8.694;2023-02-15T13:04:13;101016.13;;;4.56;90.24
38716;BME280;24833;49.324;8.694;2023-02-15T13:06:49;101010.16;;;4.75;90.67
38716;BME280;24833;49.324;8.694;2023-02-15T13:11:53;101002.81;;;5.00;90.20
38716;BME280;24833;49.324;8.694;2023-02-15T13:14:31;101004.44;;;5.12;90.59
38716;BME280;24833;49.324;8.694;2023-02-15T13:17:02;100992.94;;;5.23;90.66
38716;BME280;24833;49.324;8.694;2023-02-15T13:19:41;100997.44;;;5.32;90.57
38716;BME280;24833;49.324;8.694;2023-02-15T13:22:26;100997.47;;;5.41;90.32
38716;BME280;24833;49.324;8.694;2023-02-15T13:24:57;100994.31;;;5.47;90.23
38716;BME280;24833;49.324;8.694;2023-02-15T13:27:32;100991.03;;;5.55;91.25
38716;BME280;24833;49.324;8.694;2023-02-15T13:30:17;100986.66;;;5.54;90.01
38716;BME280;24833;49.324;8.694;2023-02-15T13:32:51;100984.75;;;5.56;89.74
38716;BME280;24833;49.324;8.694;2023-02-15T13:35:19;100981.13;;;5.57;89.75
38716;BME280;24833;49.324;8.694;2023-02-15T13:38:10;100970.81;;;5.64;90.84
38716;BME280;24833;49.324;8.694;2023-02-15T13:40:58;100965.84;;;5.70;90.89
38716;BME280;24833;49.324;8.694;2023-02-15T13:46:33;100953.63;;;5.89;91.25
38716;BME280;24833;49.324;8.694;2023-02-15T13:52:24;100946.88;;;6.15;91.76
38716;BME280;24833;49.324;8.694;2023-02-15T14:03:48;100939.88;;;6.63;92.36
38716;BME280;24833;49.324;8.694;2023-02-15T14:15:47;100940.69;;;6.92;92.71
38716;BME280;24833;49.324;8.694;2023-02-15T14:21:28;100936.47;;;6.99;91.99
38716;BME280;24833;49.324;8.694;2023-02-15T14:30:24;100943.13;;;7.13;92.12
38716;BME280;24833;49.324;8.694;2023-02-15T14:32:55;100933.91;;;7.17;91.75
38716;BME280;24833;49.324;8.694;2023-02-15T14:35:29;100927.31;;;7.21;91.37
38716;BME280;24833;49.324;8.694;2023-02-15T14:41:09;100931.78;;;7.30;92.31
38716;BME280;24833;49.324;8.694;2023-02-15T14:49:44;100922.66;;;7.33;90.87
38716;BME280;24833;49.324;8.694;2023-02-15T14:52:11;100921.25;;;7.38;91.50
38716;BME280;24833;49.324;8.694;2023-02-15T14:55:00;100916.63;;;7.41;91.18
38716;BME280;24833;49.324;8.694;2023-02-15T14:57:27;100912.69;;;7.45;90.85
38716;BME280;24833;49.324;8.694;2023-02-15T15:00:00;100907.22;;;7.46;90.89
38716;BME280;24833;49.324;8.694;2023-02-15T15:02:47;100907.78;;;7.50;91.51
38716;BME280;24833;49.324;8.694;2023-02-15T15:05:33;100901.47;;;7.51;91.15
38716;BME280;24833;49.324;8.694;2023-02-15T15:08:03;100902.06;;;7.45;89.98
38716;BME280;24833;49.324;8.694;2023-02-15T15:10:46;100908.50;;;7.42;90.54
38716;BME280;24833;49.324;8.694;2023-02-15T15:19:05;100902.81;;;7.27;88.79
38716;BME280;24833;49.324;8.694;2023-02-15T15:21:55;100911.09;;;7.24;88.33
38716;BME280;24833;49.324;8.694;2023-02-15T15:27:48;100916.06;;;7.09;88.34
38716;BME280;24833;49.324;8.694;2023-02-15T15:49:56;100920.47;;;6.62;87.32
38716;BME280;24833;49.324;8.694;2023-02-15T15:52:25;100922.41;;;6.60;87.32
38716;BME280;24833;49.324;8.694;2023-02-15T15:54:57;100922.56;;;6.59;87.18
38716;BME280;24833;49.324;8.694;2023-02-15T15:57:34;100914.03;;;6.55;86.89
38716;BME280;24833;49.324;8.694;2023-02-15T16:00:03;100921.31;;;6.53;86.71
38716;BME280;24833;49.324;8.694;2023-02-15T16:02:50;100911.97;;;6.49;86.78
38716;BME280;24833;49.324;8.694;2023-02-15T16:05:18;100914.19;;;6.44;86.01
38716;BME280;24833;49.324;8.694;2023-02-15T16:07:46;100914.06;;;6.36;85.94